Los Alamos, NM

9:26 AM MDT on June 23, 2017 (GMT -0600)
Los Alamos

Weather History for KLAM - June, 2013

Change the Weather History Date:

Friday, June 28, 2013

  Actual Average Record
Temperature  
Mean Temperature 75 °F -  
Max Temperature 87 °F 83 °F 91 °F (1980)
Min Temperature 63 °F 56 °F 46 °F (1983)
Cooling Degree Days 10    
Growing Degree Days 25 (Base 50)    
Moisture  
Dew Point 43 °F    
Average Humidity 35    
Maximum Humidity 66    
Minimum Humidity 15    
Precipitation  
Precipitation 0.01 in - - ()
Sea Level Pressure  
Sea Level Pressure 30.43 in    
Wind  
Wind Speed 10 mph (West)    
Max Wind Speed 28 mph    
Max Gust Speed 47 mph    
Visibility 10 miles    
Events Rain    
Averages and records for this station are not official NWS values.
T = Trace of Precipitation, MM = Missing Value Source: NWS Daily Summary

Daily Weather History Graph

Daily Weather History Graph

Search for Another Location

Airport or City:

Trip Planner

Search our weather history database for the weather conditions in past years. The results will help you decide how hot, cold, wet, or windy it might be!

Date:

Astronomy

Jun. 28, 2013 Rise Set
Actual Time 5:51 AM MDT 8:25 PM MDT
Civil Twilight 5:21 AM MDT 8:55 PM MDT
Nautical Twilight 4:43 AM MDT 9:33 PM MDT
Astronomical Twilight 4:02 AM MDT 10:14 PM MDT
Moon No Moon Rise 11:49 AM MDT (6/28)
Length of Visible Light 15h 34m
Length of Day
14h 34m
Waning Gibbous, 65% of the Moon is Illuminated
Jun 28
Waning Gibbous
Jun 29
Last Quarter
Jul 8
New
Jul 15
First Quarter
Jul 22
Full

Hourly Weather History & Observations

Time (MDT) Temp. Dew Point Humidity Pressure Visibility Wind Dir Wind Speed Gust Speed Precip Events Conditions
12:15 AM 81.3 °F 29.3 °F 15% 30.38 in 10.0 mi West 4.6 mph - N/A   Clear
12:35 AM 80.6 °F 29.5 °F 16% 30.38 in 10.0 mi West 9.2 mph - N/A   Clear
12:55 AM 80.1 °F 30.0 °F 16% 30.38 in 10.0 mi West 9.2 mph - N/A   Clear
1:15 AM 80.6 °F 29.3 °F 15% 30.38 in 10.0 mi West 9.2 mph - N/A   Clear
1:35 AM 80.4 °F 29.5 °F 16% 30.38 in 10.0 mi NE 4.6 mph - N/A   Clear
1:55 AM 77.9 °F 30.2 °F 17% 30.38 in 10.0 mi North 12.7 mph 21.9 mph N/A   Clear
2:15 AM 77.9 °F 30.2 °F 17% 30.39 in 10.0 mi North 12.7 mph 25.3 mph N/A   Clear
2:35 AM 77.9 °F 30.9 °F 18% 30.39 in 10.0 mi North 6.9 mph 19.6 mph N/A   Clear
2:55 AM 77.2 °F 31.3 °F 19% 30.39 in 10.0 mi NNW 5.8 mph - N/A   Clear
3:15 AM 76.5 °F 31.5 °F 19% 30.40 in 10.0 mi Calm Calm - N/A   Clear
3:35 AM 75.9 °F 32.7 °F 21% 30.40 in 10.0 mi NNW 10.4 mph 16.1 mph N/A   Clear
3:55 AM 74.7 °F 36.7 °F 25% 30.40 in 10.0 mi NNW 13.8 mph 20.7 mph N/A   Clear
4:15 AM 74.3 °F 39.4 °F 28% 30.40 in 10.0 mi NNW 18.4 mph 26.5 mph N/A   Clear
4:35 AM 74.3 °F 41.4 °F 31% 30.40 in 10.0 mi NNW 21.9 mph 26.5 mph N/A   Clear
4:55 AM 73.9 °F 42.1 °F 32% 30.41 in 10.0 mi North 18.4 mph 24.2 mph N/A   Clear
5:15 AM 73.8 °F 43.2 °F 33% 30.41 in 10.0 mi NNW 17.3 mph 25.3 mph N/A   Clear
5:35 AM 73.4 °F 44.1 °F 35% 30.42 in 10.0 mi North 16.1 mph 27.6 mph N/A   Clear
5:55 AM 72.7 °F 43.9 °F 36% 30.43 in 10.0 mi NNW 10.4 mph 19.6 mph N/A   Clear
6:55 AM 70.0 °F 42.4 °F 37% 30.48 in 10.0 mi SSW 13.8 mph 20.7 mph N/A   Clear
7:15 AM 69.6 °F 47.1 °F 45% 30.49 in 7.0 mi SSW 16.1 mph 24.2 mph N/A   Clear
7:35 AM 69.4 °F 48.2 °F 47% 30.49 in 7.0 mi SSW 15.0 mph 20.7 mph N/A   Clear
7:55 AM 69.8 °F 48.6 °F 47% 30.49 in 7.0 mi South 11.5 mph 20.7 mph N/A   Clear
8:15 AM 71.1 °F 48.2 °F 44% 30.50 in 7.0 mi South 11.5 mph 16.1 mph N/A   Clear
8:35 AM 72.0 °F 48.0 °F 43% 30.50 in 7.0 mi SSW 8.1 mph 16.1 mph N/A   Clear
8:55 AM 72.9 °F 47.8 °F 41% 30.50 in 10.0 mi South 10.4 mph - N/A   Clear
9:15 AM 74.3 °F 47.5 °F 39% 30.49 in 10.0 mi South 10.4 mph 17.3 mph N/A   Clear
9:35 AM 73.9 °F 47.1 °F 38% 30.48 in 10.0 mi South 5.8 mph - N/A   Clear
9:55 AM 74.7 °F 46.4 °F 37% 30.48 in 10.0 mi South 6.9 mph - N/A   Clear
10:15 AM 75.2 °F 45.9 °F 35% 30.48 in 10.0 mi SSW 9.2 mph - N/A   Clear
10:35 AM 76.1 °F 45.5 °F 34% 30.48 in 10.0 mi South 5.8 mph - N/A   Clear
10:55 AM 76.5 °F 45.1 °F 33% 30.48 in 10.0 mi South 5.8 mph - N/A   Clear
11:15 AM 77.0 °F 45.0 °F 32% 30.48 in 10.0 mi South 6.9 mph - N/A   Clear
11:35 AM 78.3 °F 44.6 °F 30% 30.47 in 10.0 mi South 9.2 mph - N/A   Scattered Clouds
12:15 PM 82.0 °F 43.2 °F 25% 30.46 in 10.0 mi SSE 9.2 mph 18.4 mph N/A   Clear
12:35 PM 82.8 °F 42.1 °F 24% 30.45 in 10.0 mi SSE 9.2 mph 16.1 mph N/A   Clear
12:55 PM 83.1 °F 40.6 °F 22% 30.44 in 10.0 mi South 11.5 mph 16.1 mph N/A   Clear
1:15 PM 85.8 °F 40.6 °F 20% 30.43 in 10.0 mi South 13.8 mph 18.4 mph N/A   Clear
1:35 PM 85.8 °F 39.6 °F 19% 30.41 in 10.0 mi SSE 6.9 mph 19.6 mph N/A   Clear
1:55 PM 86.0 °F 39.0 °F 19% 30.40 in 10.0 mi SSE 11.5 mph 17.3 mph N/A   Clear
2:15 PM 86.9 °F 38.7 °F 18% 30.40 in 10.0 mi South 9.2 mph 21.9 mph N/A   Clear
2:35 PM 87.3 °F 39.0 °F 18% 30.39 in 10.0 mi SE 15.0 mph 20.7 mph N/A   Clear
2:55 PM 87.3 °F 37.9 °F 17% 30.38 in 10.0 mi South 9.2 mph 20.7 mph N/A   Scattered Clouds
3:15 PM 85.5 °F 37.4 °F 18% 30.38 in 10.0 mi South 12.7 mph 16.1 mph N/A   Scattered Clouds
3:35 PM 83.3 °F 38.3 °F 20% 30.38 in 10.0 mi West 16.1 mph 28.8 mph N/A   Mostly Cloudy
3:55 PM 78.8 °F 45.5 °F 31% 30.39 in 10.0 mi West 17.3 mph 26.5 mph N/A Rain Light Rain
4:15 PM 79.7 °F 38.3 °F 23% 30.40 in 10.0 mi WNW 12.7 mph 27.6 mph N/A Rain Light Rain
4:35 PM 79.0 °F 38.3 °F 23% 30.45 in 10.0 mi NNW 10.4 mph 20.7 mph N/A Rain Light Rain
4:55 PM 69.1 °F 49.8 °F 50% 30.47 in 5.0 mi NNW 27.6 mph 46.0 mph N/A Rain Rain
5:15 PM 67.5 °F 48.7 °F 51% 30.50 in 10.0 mi NNW 21.9 mph 42.6 mph N/A Rain Light Rain
5:35 PM 65.5 °F 49.8 °F 57% 30.49 in 10.0 mi North 20.7 mph 41.4 mph 0.01 in Rain Light Rain
5:55 PM 63.5 °F 51.8 °F 66% 30.49 in 10.0 mi NNW 27.6 mph 35.7 mph 0.01 in Rain Light Rain
6:15 PM 65.3 °F 48.6 °F 55% 30.42 in 10.0 mi NNE 23.0 mph 47.2 mph N/A Rain Rain
6:35 PM 65.7 °F 50.2 °F 57% 30.46 in 10.0 mi WNW 8.1 mph 28.8 mph N/A   Overcast
6:55 PM 67.1 °F 47.5 °F 49% 30.46 in 10.0 mi WNW 8.1 mph - N/A   Mostly Cloudy
7:15 PM 67.6 °F 47.5 °F 48% 30.44 in 10.0 mi WNW 9.2 mph - N/A   Scattered Clouds
7:35 PM 69.1 °F 45.9 °F 43% 30.43 in 10.0 mi West 8.1 mph - N/A   Clear
7:55 PM 69.4 °F 46.8 °F 44% 30.41 in 10.0 mi WSW 4.6 mph - N/A   Clear
8:15 PM 70.7 °F 44.1 °F 38% 30.39 in 10.0 mi SSW 8.1 mph - N/A   Clear
8:35 PM 70.7 °F 43.2 °F 37% 30.38 in 10.0 mi SSW 8.1 mph - N/A   Clear
8:55 PM 66.2 °F 50.7 °F 57% 30.40 in 10.0 mi ENE 4.6 mph - N/A   Clear
9:15 PM 63.7 °F 52.0 °F 66% 30.41 in 10.0 mi NW 3.5 mph - N/A   Clear
9:35 PM 64.8 °F 50.2 °F 59% 30.41 in 10.0 mi Calm Calm - N/A   Scattered Clouds
9:55 PM 65.3 °F 49.6 °F 57% 30.43 in 10.0 mi North 10.4 mph - N/A   Clear
10:15 PM 66.0 °F 48.4 °F 53% 30.44 in 10.0 mi North 9.2 mph 16.1 mph N/A   Clear
10:35 PM 66.2 °F 47.7 °F 51% 30.44 in 10.0 mi North 4.6 mph - N/A   Clear
10:55 PM 66.2 °F 47.3 °F 51% 30.43 in 10.0 mi WNW 5.8 mph - N/A   Clear
11:15 PM 66.7 °F 46.2 °F 48% 30.42 in 10.0 mi WNW 5.8 mph - N/A   Clear
11:35 PM 67.5 °F 45.1 °F 45% 30.42 in 10.0 mi Calm Calm - N/A   Clear
11:55 PM 66.6 °F 45.3 °F 46% 30.43 in 10.0 mi North 6.9 mph - N/A   Clear